This is the latest recevied weather packets stored in our database for station/object KG5APU. If no packets are shown the sender has not sent any weather packets the latest 10 day(s).
| Time | Temp. | Humidity | Pressure | Rain* | Wind** | Luminosity | Snow |
|---|---|---|---|---|---|---|---|
| 1777500212 | 17.78° C | 81% | 1012.7 hPa | 0 mm | - | 237 W/m² | - |
| 1777499612 | 17.78° C | 83% | 1013.2 hPa | 0 mm | - | 230 W/m² | - |
| 1777499007 | 17.22° C | 82% | 1013.4 hPa | 0 mm | - | 317 W/m² | - |
| 1777498405 | 17.78° C | 83% | 1013.6 hPa | 0 mm | - | 232 W/m² | - |
| 1777497805 | 17.78° C | 82% | 1013.9 hPa | 0 mm | - | 274 W/m² | - |
| 1777497204 | 18.33° C | 83% | 1013.7 hPa | 0 mm | - | 421 W/m² | - |
| 1777496604 | 17.78° C | 83% | 1013.7 hPa | 0 mm | - | 477 W/m² | - |
| 1777496001 | 17.78° C | 83% | 1014.1 hPa | 0 mm | - | 259 W/m² | - |
| 1777495400 | 17.78° C | 82% | 1014.2 hPa | 0 mm | - | 230 W/m² | - |
| 1777494800 | 17.78° C | 81% | 1014.4 hPa | 0 mm | - | 246 W/m² | - |
| 1777494200 | 18.33° C | 80% | 1014.4 hPa | 0 mm | - | 558 W/m² | - |
| 1777493595 | 17.22° C | 85% | 1015.1 hPa | 0 mm | - | 361 W/m² | - |
| 1777492994 | 16.67° C | 85% | 1015.9 hPa | 0 mm | - | 103 W/m² | - |
| 1777492390 | 17.22° C | 84% | 1016.4 hPa | 0 mm | - | 25 W/m² | - |
| 1777491790 | 17.78° C | 85% | 1015.5 hPa | 0 mm | - | 102 W/m² | - |
| 1777491190 | 16.67° C | 86% | 1015.1 hPa | 0 mm | - | 232 W/m² | - |
| 1777490588 | 16.67° C | 87% | 1014.8 hPa | 0 mm | - | 126 W/m² | - |
| 1777489987 | 16.67° C | 89% | 1014.2 hPa | 0 mm | - | 407 W/m² | - |
| 1777489387 | 16.67° C | 89% | 1014.9 hPa | 4.32 mm | - | 237 W/m² | - |
| 1777488787 | 16.67° C | 86% | 1015.3 hPa | 3.05 mm | - | 177 W/m² | - |
| 1777488183 | 16.67° C | 84% | 1015.2 hPa | 0 mm | - | 34 W/m² | - |
| 1777487578 | 16.67° C | 84% | 1015.2 hPa | 0 mm | - | 68 W/m² | - |
| 1777486977 | 16.67° C | 84% | 1016.1 hPa | 0 mm | - | 79 W/m² | - |
| 1777486378 | 16.67° C | 84% | 1016 hPa | 0 mm | - | 82 W/m² | - |
| 1777485777 | 16.67° C | 85% | 1016.6 hPa | 0 mm | - | 93 W/m² | - |
* Rain latest hour (hover to see other rain measurements)
** Current wind speed in m/s (hover to see current wind gust speed)